sensor_id;sensor_type;location;lat;lon;timestamp;temperature;humidity
45008;DHT22;30743;52.008;5.644;2022-09-28T00:01:33;14.20;99.90
45008;DHT22;30743;52.008;5.644;2022-09-28T00:03:59;14.20;99.90
45008;DHT22;30743;52.008;5.644;2022-09-28T00:06:27;14.20;99.90
45008;DHT22;30743;52.008;5.644;2022-09-28T00:08:53;14.20;99.90
45008;DHT22;30743;52.008;5.644;2022-09-28T00:11:20;14.20;99.90
45008;DHT22;30743;52.008;5.644;2022-09-28T00:13:49;14.10;99.90
45008;DHT22;30743;52.008;5.644;2022-09-28T00:16:18;14.10;99.90
45008;DHT22;30743;52.008;5.644;2022-09-28T00:18:44;14.10;99.90
45008;DHT22;30743;52.008;5.644;2022-09-28T00:21:13;14.10;99.90
45008;DHT22;30743;52.008;5.644;2022-09-28T00:23:39;14.00;99.90
45008;DHT22;30743;52.008;5.644;2022-09-28T00:26:29;14.00;99.90
45008;DHT22;30743;52.008;5.644;2022-09-28T00:28:58;14.00;99.90
45008;DHT22;30743;52.008;5.644;2022-09-28T00:31:25;14.10;99.90
45008;DHT22;30743;52.008;5.644;2022-09-28T00:33:52;14.10;99.90
45008;DHT22;30743;52.008;5.644;2022-09-28T00:36:21;14.10;99.90
45008;DHT22;30743;52.008;5.644;2022-09-28T00:38:46;14.20;99.90
45008;DHT22;30743;52.008;5.644;2022-09-28T00:41:13;14.20;99.90
45008;DHT22;30743;52.008;5.644;2022-09-28T00:43:38;14.20;99.90
45008;DHT22;30743;52.008;5.644;2022-09-28T00:46:11;14.20;99.90
45008;DHT22;30743;52.008;5.644;2022-09-28T00:48:45;14.30;99.90
45008;DHT22;30743;52.008;5.644;2022-09-28T00:51:12;14.30;99.90
45008;DHT22;30743;52.008;5.644;2022-09-28T00:53:39;14.30;99.90
45008;DHT22;30743;52.008;5.644;2022-09-28T00:56:10;14.30;99.90
45008;DHT22;30743;52.008;5.644;2022-09-28T00:58:41;14.30;99.90
45008;DHT22;30743;52.008;5.644;2022-09-28T01:01:08;14.20;99.90
45008;DHT22;30743;52.008;5.644;2022-09-28T01:03:34;14.30;99.90
45008;DHT22;30743;52.008;5.644;2022-09-28T01:06:02;14.30;99.90
45008;DHT22;30743;52.008;5.644;2022-09-28T01:08:29;14.30;99.90
45008;DHT22;30743;52.008;5.644;2022-09-28T01:10:57;14.30;99.90
45008;DHT22;30743;52.008;5.644;2022-09-28T01:13:24;14.60;99.90
45008;DHT22;30743;52.008;5.644;2022-09-28T01:19:07;14.20;99.90
45008;DHT22;30743;52.008;5.644;2022-09-28T01:21:51;14.20;99.90
45008;DHT22;30743;52.008;5.644;2022-09-28T01:24:41;14.10;99.90
45008;DHT22;30743;52.008;5.644;2022-09-28T01:27:27;14.00;99.90
45008;DHT22;30743;52.008;5.644;2022-09-28T01:30:07;13.90;99.90
45008;DHT22;30743;52.008;5.644;2022-09-28T01:35:28;13.80;99.90
45008;DHT22;30743;52.008;5.644;2022-09-28T01:38:18;13.80;99.90
45008;DHT22;30743;52.008;5.644;2022-09-28T01:40:45;13.80;99.90
45008;DHT22;30743;52.008;5.644;2022-09-28T01:43:17;13.70;99.90
45008;DHT22;30743;52.008;5.644;2022-09-28T01:45:52;13.70;99.90
45008;DHT22;30743;52.008;5.644;2022-09-28T01:48:23;13.70;99.90
45008;DHT22;30743;52.008;5.644;2022-09-28T01:50:54;13.70;99.90
45008;DHT22;30743;52.008;5.644;2022-09-28T01:53:26;13.70;99.90
45008;DHT22;30743;52.008;5.644;2022-09-28T01:55:56;13.70;99.90
45008;DHT22;30743;52.008;5.644;2022-09-28T02:01:00;13.60;99.90
45008;DHT22;30743;52.008;5.644;2022-09-28T02:03:36;13.50;99.90
45008;DHT22;30743;52.008;5.644;2022-09-28T02:07:08;13.50;99.90
45008;DHT22;30743;52.008;5.644;2022-09-28T02:09:09;13.40;99.90
45008;DHT22;30743;52.008;5.644;2022-09-28T02:11:37;13.50;99.90
45008;DHT22;30743;52.008;5.644;2022-09-28T02:14:09;13.50;99.90
45008;DHT22;30743;52.008;5.644;2022-09-28T02:16:50;13.50;99.90
45008;DHT22;30743;52.008;5.644;2022-09-28T02:19:21;13.50;99.90
45008;DHT22;30743;52.008;5.644;2022-09-28T02:27:22;13.60;99.90
45008;DHT22;30743;52.008;5.644;2022-09-28T02:29:49;13.50;99.90
45008;DHT22;30743;52.008;5.644;2022-09-28T02:32:16;13.60;99.90
45008;DHT22;30743;52.008;5.644;2022-09-28T02:34:43;13.70;99.90
45008;DHT22;30743;52.008;5.644;2022-09-28T02:37:09;13.70;99.90
45008;DHT22;30743;52.008;5.644;2022-09-28T02:39:34;13.70;99.90
45008;DHT22;30743;52.008;5.644;2022-09-28T02:56:21;13.60;99.90
45008;DHT22;30743;52.008;5.644;2022-09-28T03:01:57;13.60;99.90
45008;DHT22;30743;52.008;5.644;2022-09-28T03:04:35;13.60;99.90
45008;DHT22;30743;52.008;5.644;2022-09-28T03:12:31;13.80;99.90
45008;DHT22;30743;52.008;5.644;2022-09-28T03:15:07;13.90;99.90
45008;DHT22;30743;52.008;5.644;2022-09-28T03:17:33;14.00;99.90
45008;DHT22;30743;52.008;5.644;2022-09-28T03:19:59;14.00;99.90
45008;DHT22;30743;52.008;5.644;2022-09-28T03:22:24;14.10;99.90
45008;DHT22;30743;52.008;5.644;2022-09-28T03:24:50;14.20;99.90
45008;DHT22;30743;52.008;5.644;2022-09-28T03:27:15;14.30;99.90
45008;DHT22;30743;52.008;5.644;2022-09-28T03:29:41;14.40;99.90
45008;DHT22;30743;52.008;5.644;2022-09-28T03:32:06;14.40;99.90
45008;DHT22;30743;52.008;5.644;2022-09-28T03:34:32;14.50;99.90
45008;DHT22;30743;52.008;5.644;2022-09-28T03:36:57;14.50;99.90
45008;DHT22;30743;52.008;5.644;2022-09-28T03:39:23;14.50;99.90
45008;DHT22;30743;52.008;5.644;2022-09-28T03:41:48;14.50;99.90
45008;DHT22;30743;52.008;5.644;2022-09-28T03:44:14;14.60;99.90
45008;DHT22;30743;52.008;5.644;2022-09-28T03:46:39;14.50;99.90
45008;DHT22;30743;52.008;5.644;2022-09-28T03:49:05;14.50;99.90
45008;DHT22;30743;52.008;5.644;2022-09-28T03:51:30;14.50;99.90
45008;DHT22;30743;52.008;5.644;2022-09-28T03:53:56;14.40;99.90
45008;DHT22;30743;52.008;5.644;2022-09-28T03:56:21;14.50;99.90
45008;DHT22;30743;52.008;5.644;2022-09-28T03:58:47;14.50;99.90
45008;DHT22;30743;52.008;5.644;2022-09-28T04:01:13;14.40;99.90
45008;DHT22;30743;52.008;5.644;2022-09-28T04:03:42;14.40;99.90
45008;DHT22;30743;52.008;5.644;2022-09-28T04:06:08;14.40;99.90
45008;DHT22;30743;52.008;5.644;2022-09-28T04:08:34;14.40;99.90
45008;DHT22;30743;52.008;5.644;2022-09-28T04:11:00;14.30;99.90
45008;DHT22;30743;52.008;5.644;2022-09-28T04:13:27;14.20;99.90
45008;DHT22;30743;52.008;5.644;2022-09-28T04:15:55;14.20;99.90
45008;DHT22;30743;52.008;5.644;2022-09-28T04:18:21;14.10;99.90
45008;DHT22;30743;52.008;5.644;2022-09-28T04:20:47;14.10;99.90
45008;DHT22;30743;52.008;5.644;2022-09-28T04:23:15;14.00;99.90
45008;DHT22;30743;52.008;5.644;2022-09-28T04:25:41;14.00;99.90
45008;DHT22;30743;52.008;5.644;2022-09-28T04:28:10;13.90;99.90
45008;DHT22;30743;52.008;5.644;2022-09-28T04:30:54;13.90;99.90
45008;DHT22;30743;52.008;5.644;2022-09-28T04:33:19;13.80;99.90
45008;DHT22;30743;52.008;5.644;2022-09-28T04:35:45;13.70;99.90
45008;DHT22;30743;52.008;5.644;2022-09-28T04:38:10;13.70;99.90
45008;DHT22;30743;52.008;5.644;2022-09-28T04:40:36;13.60;99.90
45008;DHT22;30743;52.008;5.644;2022-09-28T04:43:02;13.60;99.90
45008;DHT22;30743;52.008;5.644;2022-09-28T04:45:27;13.50;99.90
45008;DHT22;30743;52.008;5.644;2022-09-28T04:47:53;13.40;99.90
45008;DHT22;30743;52.008;5.644;2022-09-28T04:50:19;13.40;99.90
45008;DHT22;30743;52.008;5.644;2022-09-28T04:52:44;13.40;99.90
45008;DHT22;30743;52.008;5.644;2022-09-28T04:55:13;13.30;99.90
45008;DHT22;30743;52.008;5.644;2022-09-28T04:57:39;13.30;99.90
45008;DHT22;30743;52.008;5.644;2022-09-28T05:00:05;13.30;99.90
45008;DHT22;30743;52.008;5.644;2022-09-28T05:02:31;13.20;99.90
45008;DHT22;30743;52.008;5.644;2022-09-28T05:04:58;13.20;99.90
45008;DHT22;30743;52.008;5.644;2022-09-28T05:07:24;13.10;99.90
45008;DHT22;30743;52.008;5.644;2022-09-28T05:09:51;13.10;99.90
45008;DHT22;30743;52.008;5.644;2022-09-28T05:12:16;13.10;99.90
45008;DHT22;30743;52.008;5.644;2022-09-28T05:14:42;13.00;99.90
45008;DHT22;30743;52.008;5.644;2022-09-28T05:17:08;13.00;99.90
45008;DHT22;30743;52.008;5.644;2022-09-28T05:19:34;13.00;99.90
45008;DHT22;30743;52.008;5.644;2022-09-28T05:22:00;12.90;99.90
45008;DHT22;30743;52.008;5.644;2022-09-28T05:24:30;12.90;99.90
45008;DHT22;30743;52.008;5.644;2022-09-28T05:26:56;12.90;99.90
45008;DHT22;30743;52.008;5.644;2022-09-28T05:29:21;12.90;99.90
45008;DHT22;30743;52.008;5.644;2022-09-28T05:31:47;12.80;99.90
45008;DHT22;30743;52.008;5.644;2022-09-28T05:34:12;12.70;99.90
45008;DHT22;30743;52.008;5.644;2022-09-28T05:36:38;12.70;99.90
45008;DHT22;30743;52.008;5.644;2022-09-28T05:39:05;12.70;99.90
45008;DHT22;30743;52.008;5.644;2022-09-28T05:41:31;12.70;99.90
45008;DHT22;30743;52.008;5.644;2022-09-28T05:43:56;12.60;99.90
45008;DHT22;30743;52.008;5.644;2022-09-28T05:46:22;12.60;99.90
45008;DHT22;30743;52.008;5.644;2022-09-28T05:48:48;12.60;99.90
45008;DHT22;30743;52.008;5.644;2022-09-28T05:51:15;12.60;99.90
45008;DHT22;30743;52.008;5.644;2022-09-28T05:53:41;12.50;99.90
45008;DHT22;30743;52.008;5.644;2022-09-28T05:56:06;12.50;99.90
45008;DHT22;30743;52.008;5.644;2022-09-28T05:58:32;12.50;99.90
45008;DHT22;30743;52.008;5.644;2022-09-28T06:00:57;12.50;99.90
45008;DHT22;30743;52.008;5.644;2022-09-28T06:03:23;12.50;99.90
45008;DHT22;30743;52.008;5.644;2022-09-28T06:05:49;12.50;99.90
45008;DHT22;30743;52.008;5.644;2022-09-28T06:08:14;12.50;99.90
45008;DHT22;30743;52.008;5.644;2022-09-28T06:10:40;12.50;99.90
45008;DHT22;30743;52.008;5.644;2022-09-28T06:13:06;12.50;99.90
45008;DHT22;30743;52.008;5.644;2022-09-28T06:15:33;12.50;99.90
45008;DHT22;30743;52.008;5.644;2022-09-28T06:18:02;12.50;99.90
45008;DHT22;30743;52.008;5.644;2022-09-28T06:20:29;12.50;99.90
45008;DHT22;30743;52.008;5.644;2022-09-28T06:22:55;12.60;99.90
45008;DHT22;30743;52.008;5.644;2022-09-28T06:25:22;12.60;99.90
45008;DHT22;30743;52.008;5.644;2022-09-28T06:28:02;12.70;99.90
45008;DHT22;30743;52.008;5.644;2022-09-28T06:30:30;12.70;99.90
45008;DHT22;30743;52.008;5.644;2022-09-28T06:32:57;12.70;99.90
45008;DHT22;30743;52.008;5.644;2022-09-28T06:35:25;12.80;99.90
45008;DHT22;30743;52.008;5.644;2022-09-28T06:37:52;12.90;99.90
45008;DHT22;30743;52.008;5.644;2022-09-28T06:40:18;12.90;99.90
45008;DHT22;30743;52.008;5.644;2022-09-28T06:42:53;12.90;99.90
45008;DHT22;30743;52.008;5.644;2022-09-28T06:45:19;13.10;99.90
45008;DHT22;30743;52.008;5.644;2022-09-28T06:47:46;13.20;99.90
45008;DHT22;30743;52.008;5.644;2022-09-28T06:50:16;13.20;99.90
45008;DHT22;30743;52.008;5.644;2022-09-28T06:52:41;13.30;99.90
45008;DHT22;30743;52.008;5.644;2022-09-28T06:55:07;13.30;99.90
45008;DHT22;30743;52.008;5.644;2022-09-28T06:57:33;13.40;99.90
45008;DHT22;30743;52.008;5.644;2022-09-28T07:00:00;13.60;99.90
45008;DHT22;30743;52.008;5.644;2022-09-28T07:02:25;13.80;99.90
45008;DHT22;30743;52.008;5.644;2022-09-28T07:04:51;14.30;99.90
45008;DHT22;30743;52.008;5.644;2022-09-28T07:07:16;14.80;99.90
45008;DHT22;30743;52.008;5.644;2022-09-28T07:09:42;15.40;99.90
45008;DHT22;30743;52.008;5.644;2022-09-28T07:12:08;16.20;99.90
45008;DHT22;30743;52.008;5.644;2022-09-28T07:14:37;17.60;99.90
45008;DHT22;30743;52.008;5.644;2022-09-28T07:17:04;17.60;99.90
45008;DHT22;30743;52.008;5.644;2022-09-28T07:19:32;18.50;99.90
45008;DHT22;30743;52.008;5.644;2022-09-28T07:21:58;19.20;99.90
45008;DHT22;30743;52.008;5.644;2022-09-28T07:24:24;19.90;99.90
45008;DHT22;30743;52.008;5.644;2022-09-28T07:26:49;20.60;99.90
45008;DHT22;30743;52.008;5.644;2022-09-28T07:29:15;21.30;99.90
45008;DHT22;30743;52.008;5.644;2022-09-28T07:31:41;22.00;99.90
45008;DHT22;30743;52.008;5.644;2022-09-28T07:34:06;22.70;99.90
45008;DHT22;30743;52.008;5.644;2022-09-28T07:36:32;23.30;99.90
45008;DHT22;30743;52.008;5.644;2022-09-28T07:39:01;23.90;99.90
45008;DHT22;30743;52.008;5.644;2022-09-28T07:41:27;24.60;98.80
45008;DHT22;30743;52.008;5.644;2022-09-28T07:44:00;25.30;97.30
45008;DHT22;30743;52.008;5.644;2022-09-28T07:46:36;25.90;95.70
45008;DHT22;30743;52.008;5.644;2022-09-28T07:49:02;26.40;93.50
45008;DHT22;30743;52.008;5.644;2022-09-28T07:51:30;26.80;92.50
45008;DHT22;30743;52.008;5.644;2022-09-28T07:53:56;26.80;91.50
45008;DHT22;30743;52.008;5.644;2022-09-28T07:56:21;27.00;91.00
45008;DHT22;30743;52.008;5.644;2022-09-28T07:58:47;27.20;90.90
45008;DHT22;30743;52.008;5.644;2022-09-28T08:01:14;27.40;89.90
45008;DHT22;30743;52.008;5.644;2022-09-28T08:03:41;27.30;88.00
45008;DHT22;30743;52.008;5.644;2022-09-28T08:06:10;27.70;90.00
45008;DHT22;30743;52.008;5.644;2022-09-28T08:08:37;27.10;86.90
45008;DHT22;30743;52.008;5.644;2022-09-28T08:11:05;26.40;88.90
45008;DHT22;30743;52.008;5.644;2022-09-28T08:13:31;26.80;87.50
45008;DHT22;30743;52.008;5.644;2022-09-28T08:16:00;27.30;89.70
45008;DHT22;30743;52.008;5.644;2022-09-28T08:18:26;27.60;87.80
45008;DHT22;30743;52.008;5.644;2022-09-28T08:20:51;28.30;87.00
45008;DHT22;30743;52.008;5.644;2022-09-28T08:23:36;29.10;86.80
45008;DHT22;30743;52.008;5.644;2022-09-28T08:26:03;29.80;85.50
45008;DHT22;30743;52.008;5.644;2022-09-28T08:28:29;29.40;80.40
45008;DHT22;30743;52.008;5.644;2022-09-28T08:30:57;29.40;82.20
45008;DHT22;30743;52.008;5.644;2022-09-28T08:33:23;29.60;82.30
45008;DHT22;30743;52.008;5.644;2022-09-28T08:35:56;29.70;79.80
45008;DHT22;30743;52.008;5.644;2022-09-28T08:38:23;30.00;80.70
45008;DHT22;30743;52.008;5.644;2022-09-28T08:44:08;31.20;80.80
45008;DHT22;30743;52.008;5.644;2022-09-28T08:46:39;31.80;78.50
45008;DHT22;30743;52.008;5.644;2022-09-28T08:49:15;31.60;75.80
45008;DHT22;30743;52.008;5.644;2022-09-28T08:54:49;32.30;75.90
45008;DHT22;30743;52.008;5.644;2022-09-28T08:57:29;32.90;75.50
45008;DHT22;30743;52.008;5.644;2022-09-28T08:59:57;33.50;74.40
45008;DHT22;30743;52.008;5.644;2022-09-28T09:02:37;33.90;71.10
45008;DHT22;30743;52.008;5.644;2022-09-28T09:05:08;34.60;70.20
45008;DHT22;30743;52.008;5.644;2022-09-28T09:07:57;35.00;67.30
45008;DHT22;30743;52.008;5.644;2022-09-28T09:10:44;35.20;66.60
45008;DHT22;30743;52.008;5.644;2022-09-28T09:13:45;35.70;65.90
45008;DHT22;30743;52.008;5.644;2022-09-28T09:19:02;36.20;64.20
45008;DHT22;30743;52.008;5.644;2022-09-28T09:21:57;35.60;61.70
45008;DHT22;30743;52.008;5.644;2022-09-28T09:24:49;35.40;62.90
45008;DHT22;30743;52.008;5.644;2022-09-28T09:30:14;35.60;61.40
45008;DHT22;30743;52.008;5.644;2022-09-28T09:38:36;36.40;60.70
45008;DHT22;30743;52.008;5.644;2022-09-28T09:41:08;36.80;61.60
45008;DHT22;30743;52.008;5.644;2022-09-28T09:44:13;37.00;57.90
45008;DHT22;30743;52.008;5.644;2022-09-28T09:46:52;36.40;57.20
45008;DHT22;30743;52.008;5.644;2022-09-28T09:49:44;35.90;57.90
45008;DHT22;30743;52.008;5.644;2022-09-28T09:52:25;35.60;58.80
45008;DHT22;30743;52.008;5.644;2022-09-28T09:54:58;34.70;57.60
45008;DHT22;30743;52.008;5.644;2022-09-28T09:57:31;34.20;59.70
45008;DHT22;30743;52.008;5.644;2022-09-28T10:00:01;33.70;59.10
45008;DHT22;30743;52.008;5.644;2022-09-28T10:02:29;33.40;59.80
45008;DHT22;30743;52.008;5.644;2022-09-28T10:10:28;33.60;59.50
45008;DHT22;30743;52.008;5.644;2022-09-28T10:12:55;32.90;59.10
45008;DHT22;30743;52.008;5.644;2022-09-28T10:15:26;32.20;60.40
45008;DHT22;30743;52.008;5.644;2022-09-28T10:17:54;31.40;63.50
45008;DHT22;30743;52.008;5.644;2022-09-28T10:20:21;31.40;64.50
45008;DHT22;30743;52.008;5.644;2022-09-28T10:22:49;31.50;62.40
45008;DHT22;30743;52.008;5.644;2022-09-28T10:25:16;31.30;62.50
45008;DHT22;30743;52.008;5.644;2022-09-28T10:27:44;30.70;63.20
45008;DHT22;30743;52.008;5.644;2022-09-28T10:30:20;30.10;63.30
45008;DHT22;30743;52.008;5.644;2022-09-28T10:32:49;29.70;64.40
45008;DHT22;30743;52.008;5.644;2022-09-28T10:38:04;28.80;67.20
45008;DHT22;30743;52.008;5.644;2022-09-28T10:40:44;29.20;68.10
45008;DHT22;30743;52.008;5.644;2022-09-28T10:43:30;29.80;64.90
45008;DHT22;30743;52.008;5.644;2022-09-28T10:48:29;31.80;62.50
45008;DHT22;30743;52.008;5.644;2022-09-28T10:51:04;32.30;61.40
45008;DHT22;30743;52.008;5.644;2022-09-28T10:53:30;32.30;61.80
45008;DHT22;30743;52.008;5.644;2022-09-28T10:56:02;32.50;60.70
45008;DHT22;30743;52.008;5.644;2022-09-28T10:58:39;32.40;60.30
45008;DHT22;30743;52.008;5.644;2022-09-28T11:01:18;31.90;59.90
45008;DHT22;30743;52.008;5.644;2022-09-28T11:03:55;32.10;62.00
45008;DHT22;30743;52.008;5.644;2022-09-28T11:06:35;31.80;62.50
45008;DHT22;30743;52.008;5.644;2022-09-28T11:09:03;32.00;63.30
45008;DHT22;30743;52.008;5.644;2022-09-28T11:11:29;32.40;60.60
45008;DHT22;30743;52.008;5.644;2022-09-28T11:13:59;32.40;60.50
45008;DHT22;30743;52.008;5.644;2022-09-28T11:16:30;32.70;60.70
45008;DHT22;30743;52.008;5.644;2022-09-28T11:19:04;33.00;61.20
45008;DHT22;30743;52.008;5.644;2022-09-28T11:21:40;33.60;61.10
45008;DHT22;30743;52.008;5.644;2022-09-28T11:24:26;34.10;58.10
45008;DHT22;30743;52.008;5.644;2022-09-28T11:26:54;34.30;56.60
45008;DHT22;30743;52.008;5.644;2022-09-28T11:32:01;34.60;58.20
45008;DHT22;30743;52.008;5.644;2022-09-28T11:34:35;33.90;59.00
45008;DHT22;30743;52.008;5.644;2022-09-28T11:37:08;33.50;56.80
45008;DHT22;30743;52.008;5.644;2022-09-28T11:45:47;31.80;62.50
45008;DHT22;30743;52.008;5.644;2022-09-28T11:48:13;31.80;62.20
45008;DHT22;30743;52.008;5.644;2022-09-28T11:51:04;32.30;61.70
45008;DHT22;30743;52.008;5.644;2022-09-28T11:53:49;32.60;60.80
45008;DHT22;30743;52.008;5.644;2022-09-28T11:56:40;32.70;56.70
45008;DHT22;30743;52.008;5.644;2022-09-28T12:01:49;32.60;58.10
45008;DHT22;30743;52.008;5.644;2022-09-28T12:07:05;31.30;58.40
45008;DHT22;30743;52.008;5.644;2022-09-28T12:09:59;30.80;61.40
45008;DHT22;30743;52.008;5.644;2022-09-28T12:12:37;30.30;62.10
45008;DHT22;30743;52.008;5.644;2022-09-28T12:15:18;30.10;62.40
45008;DHT22;30743;52.008;5.644;2022-09-28T12:17:53;30.20;61.30
45008;DHT22;30743;52.008;5.644;2022-09-28T12:20:31;30.20;62.30
45008;DHT22;30743;52.008;5.644;2022-09-28T12:23:21;30.20;62.60
45008;DHT22;30743;52.008;5.644;2022-09-28T12:26:05;29.90;65.10
45008;DHT22;30743;52.008;5.644;2022-09-28T12:28:41;30.20;62.20
45008;DHT22;30743;52.008;5.644;2022-09-28T12:31:16;30.30;62.20
45008;DHT22;30743;52.008;5.644;2022-09-28T12:33:47;30.60;65.00
45008;DHT22;30743;52.008;5.644;2022-09-28T12:36:45;31.10;65.20
45008;DHT22;30743;52.008;5.644;2022-09-28T12:42:07;32.10;62.50
45008;DHT22;30743;52.008;5.644;2022-09-28T12:50:10;31.40;60.70
45008;DHT22;30743;52.008;5.644;2022-09-28T12:53:45;30.80;60.40
45008;DHT22;30743;52.008;5.644;2022-09-28T13:07:19;26.40;69.20
45008;DHT22;30743;52.008;5.644;2022-09-28T13:10:01;25.40;72.60
45008;DHT22;30743;52.008;5.644;2022-09-28T13:18:32;23.40;78.50
45008;DHT22;30743;52.008;5.644;2022-09-28T13:21:10;23.30;78.20
45008;DHT22;30743;52.008;5.644;2022-09-28T13:23:42;23.00;80.00
45008;DHT22;30743;52.008;5.644;2022-09-28T13:26:46;22.90;82.50
45008;DHT22;30743;52.008;5.644;2022-09-28T13:29:13;22.60;82.80
45008;DHT22;30743;52.008;5.644;2022-09-28T13:32:00;22.40;83.20
45008;DHT22;30743;52.008;5.644;2022-09-28T13:34:28;22.20;83.40
45008;DHT22;30743;52.008;5.644;2022-09-28T13:39:50;21.90;88.40
45008;DHT22;30743;52.008;5.644;2022-09-28T13:42:22;21.90;86.60
45008;DHT22;30743;52.008;5.644;2022-09-28T13:58:52;21.80;87.00
45008;DHT22;30743;52.008;5.644;2022-09-28T14:01:44;21.60;87.20
45008;DHT22;30743;52.008;5.644;2022-09-28T14:04:17;21.40;88.30
45008;DHT22;30743;52.008;5.644;2022-09-28T14:07:09;21.40;89.40
45008;DHT22;30743;52.008;5.644;2022-09-28T14:15:29;20.90;90.70
45008;DHT22;30743;52.008;5.644;2022-09-28T14:18:04;20.70;91.10
45008;DHT22;30743;52.008;5.644;2022-09-28T14:20:34;20.60;91.40
45008;DHT22;30743;52.008;5.644;2022-09-28T14:31:40;20.30;91.10
45008;DHT22;30743;52.008;5.644;2022-09-28T14:34:22;20.20;91.30
45008;DHT22;30743;52.008;5.644;2022-09-28T14:36:48;19.90;91.70
45008;DHT22;30743;52.008;5.644;2022-09-28T14:39:35;19.90;92.20
45008;DHT22;30743;52.008;5.644;2022-09-28T14:42:22;19.50;92.20
45008;DHT22;30743;52.008;5.644;2022-09-28T14:50:25;19.20;94.00
45008;DHT22;30743;52.008;5.644;2022-09-28T14:53:02;19.10;94.00
45008;DHT22;30743;52.008;5.644;2022-09-28T14:55:46;19.20;94.80
45008;DHT22;30743;52.008;5.644;2022-09-28T14:58:26;19.10;94.80
45008;DHT22;30743;52.008;5.644;2022-09-28T15:01:04;19.10;94.40
45008;DHT22;30743;52.008;5.644;2022-09-28T15:03:33;19.20;96.20
45008;DHT22;30743;52.008;5.644;2022-09-28T15:05:59;19.20;95.80
45008;DHT22;30743;52.008;5.644;2022-09-28T15:08:35;19.30;95.60
45008;DHT22;30743;52.008;5.644;2022-09-28T15:11:01;19.30;95.40
45008;DHT22;30743;52.008;5.644;2022-09-28T15:13:27;19.30;96.20
45008;DHT22;30743;52.008;5.644;2022-09-28T15:16:03;19.50;96.50
45008;DHT22;30743;52.008;5.644;2022-09-28T15:20:58;19.60;96.60
45008;DHT22;30743;52.008;5.644;2022-09-28T15:23:35;19.60;96.30
45008;DHT22;30743;52.008;5.644;2022-09-28T15:26:03;19.70;97.00
45008;DHT22;30743;52.008;5.644;2022-09-28T15:28:33;19.90;96.80
45008;DHT22;30743;52.008;5.644;2022-09-28T15:31:01;19.80;96.70
45008;DHT22;30743;52.008;5.644;2022-09-28T15:33:32;19.90;96.80
45008;DHT22;30743;52.008;5.644;2022-09-28T15:36:20;19.90;96.30
45008;DHT22;30743;52.008;5.644;2022-09-28T15:41:19;19.90;96.90
45008;DHT22;30743;52.008;5.644;2022-09-28T15:44:36;19.90;97.30
45008;DHT22;30743;52.008;5.644;2022-09-28T15:47:15;19.90;97.30
45008;DHT22;30743;52.008;5.644;2022-09-28T15:50:04;19.80;97.00
45008;DHT22;30743;52.008;5.644;2022-09-28T15:55:18;19.90;97.30
45008;DHT22;30743;52.008;5.644;2022-09-28T15:57:44;19.70;96.70
45008;DHT22;30743;52.008;5.644;2022-09-28T16:00:29;19.60;96.90
45008;DHT22;30743;52.008;5.644;2022-09-28T16:05:43;19.50;97.70
45008;DHT22;30743;52.008;5.644;2022-09-28T16:08:18;19.40;97.40
45008;DHT22;30743;52.008;5.644;2022-09-28T16:11:22;19.50;98.30
45008;DHT22;30743;52.008;5.644;2022-09-28T16:13:54;19.50;98.40
45008;DHT22;30743;52.008;5.644;2022-09-28T16:16:32;19.50;98.50
45008;DHT22;30743;52.008;5.644;2022-09-28T16:19:00;19.50;98.60
45008;DHT22;30743;52.008;5.644;2022-09-28T16:21:45;19.60;98.20
45008;DHT22;30743;52.008;5.644;2022-09-28T16:24:21;19.60;98.00
45008;DHT22;30743;52.008;5.644;2022-09-28T16:27:00;19.70;98.10
45008;DHT22;30743;52.008;5.644;2022-09-28T16:29:40;19.50;97.70
45008;DHT22;30743;52.008;5.644;2022-09-28T16:32:33;19.40;97.70
45008;DHT22;30743;52.008;5.644;2022-09-28T16:37:38;19.20;98.60
45008;DHT22;30743;52.008;5.644;2022-09-28T16:40:11;19.30;98.60
45008;DHT22;30743;52.008;5.644;2022-09-28T16:42:38;19.20;98.60
45008;DHT22;30743;52.008;5.644;2022-09-28T16:45:05;19.20;98.30
45008;DHT22;30743;52.008;5.644;2022-09-28T16:47:32;19.20;98.40
45008;DHT22;30743;52.008;5.644;2022-09-28T16:49:59;19.00;98.30
45008;DHT22;30743;52.008;5.644;2022-09-28T16:52:27;18.90;98.60
45008;DHT22;30743;52.008;5.644;2022-09-28T16:55:11;18.80;98.70
45008;DHT22;30743;52.008;5.644;2022-09-28T16:57:39;18.80;99.10
45008;DHT22;30743;52.008;5.644;2022-09-28T17:00:05;18.50;99.00
45008;DHT22;30743;52.008;5.644;2022-09-28T17:02:31;18.40;99.30
45008;DHT22;30743;52.008;5.644;2022-09-28T17:04:57;18.40;99.50
45008;DHT22;30743;52.008;5.644;2022-09-28T17:07:22;18.20;99.50
45008;DHT22;30743;52.008;5.644;2022-09-28T17:09:48;18.20;99.90
45008;DHT22;30743;52.008;5.644;2022-09-28T17:12:21;18.20;99.90
45008;DHT22;30743;52.008;5.644;2022-09-28T17:14:49;18.20;99.90
45008;DHT22;30743;52.008;5.644;2022-09-28T17:17:14;18.20;99.90
45008;DHT22;30743;52.008;5.644;2022-09-28T17:19:40;18.20;99.90
45008;DHT22;30743;52.008;5.644;2022-09-28T17:22:07;18.30;99.90
45008;DHT22;30743;52.008;5.644;2022-09-28T17:24:33;18.20;99.90
45008;DHT22;30743;52.008;5.644;2022-09-28T17:26:59;18.20;99.90
45008;DHT22;30743;52.008;5.644;2022-09-28T17:29:25;18.20;99.90
45008;DHT22;30743;52.008;5.644;2022-09-28T17:31:52;18.20;99.90
45008;DHT22;30743;52.008;5.644;2022-09-28T17:34:18;18.20;99.90
45008;DHT22;30743;52.008;5.644;2022-09-28T17:36:45;18.20;99.90
45008;DHT22;30743;52.008;5.644;2022-09-28T17:39:16;18.10;99.90
45008;DHT22;30743;52.008;5.644;2022-09-28T17:41:42;18.20;99.90
45008;DHT22;30743;52.008;5.644;2022-09-28T17:44:08;18.10;99.90
45008;DHT22;30743;52.008;5.644;2022-09-28T17:46:38;18.10;99.90
45008;DHT22;30743;52.008;5.644;2022-09-28T17:49:06;18.00;99.90
45008;DHT22;30743;52.008;5.644;2022-09-28T17:51:34;18.00;99.90
45008;DHT22;30743;52.008;5.644;2022-09-28T17:54:02;17.90;99.90
45008;DHT22;30743;52.008;5.644;2022-09-28T17:56:28;17.90;99.90
45008;DHT22;30743;52.008;5.644;2022-09-28T17:58:56;17.80;99.90
45008;DHT22;30743;52.008;5.644;2022-09-28T18:01:22;17.70;99.90
45008;DHT22;30743;52.008;5.644;2022-09-28T18:03:48;17.70;99.90
45008;DHT22;30743;52.008;5.644;2022-09-28T18:06:16;17.60;99.90
45008;DHT22;30743;52.008;5.644;2022-09-28T18:08:44;17.50;99.90
45008;DHT22;30743;52.008;5.644;2022-09-28T18:11:10;17.40;99.90
45008;DHT22;30743;52.008;5.644;2022-09-28T18:13:36;17.30;99.90
45008;DHT22;30743;52.008;5.644;2022-09-28T18:16:02;17.30;99.90
45008;DHT22;30743;52.008;5.644;2022-09-28T18:18:28;17.30;99.90
45008;DHT22;30743;52.008;5.644;2022-09-28T18:20:54;17.20;99.90
45008;DHT22;30743;52.008;5.644;2022-09-28T18:23:19;17.20;99.90
45008;DHT22;30743;52.008;5.644;2022-09-28T18:25:45;17.10;99.90
45008;DHT22;30743;52.008;5.644;2022-09-28T18:28:12;17.10;99.90
45008;DHT22;30743;52.008;5.644;2022-09-28T18:30:39;17.00;99.90